^^
Datos históricos de la estación: Murcia-Puente Tocinos
Diario Informe para Noviembre 11, 2019 Unidades:  Ambas    Ingés   Métrico
Diario Semanal Mensual Anual
  Máxima: Mínima: Promedio:
Temperatura: 64.4 °F /  18 °C 51.8 °F /  11 °C 57.9 °F /  14.4 °C
Punto de rocio: 44.4 °F /  6.9 °C 33.4 °F /  0.8 °C 37.9 °F /  3.3 °C
Humedad: 56% 38.8% 48%
Velocidad viento: 17.8mph /  28.7km/h - 9.3mph /  15km/h
Racha viento: 32.4mph /  52.1km/h - -
Viento- - Oeste
Presión: 30 in /  1014.9 hPa 29.8 in /  1010.3 hPa -
Precipitación: 0 in /  0.0 mm    
 
 
Tabla de datos para Noviembre 11, 2019
Hora Temperatura Punto de rocio Presión Viento Velocidad viento Racha viento Humedad Intensidad lluvia(por hora) Nubes
00:04 54.7 °F /  12.6 °C 36.3 °F /  2.4 °C 29.9in /  1013.7hPa NO 4.6mph /  7.4km/h 9.2mph /  14.8km/h 50% 0in /  0.0mm
00:09 54.7 °F /  12.6 °C 36.3 °F /  2.4 °C 29.9in /  1014.0hPa NE 4.7mph /  7.6km/h 10.4mph /  16.7km/h 50% 0in /  0.0mm
00:14 54.7 °F /  12.6 °C 36.3 °F /  2.4 °C 29.9in /  1014.0hPa Este 5.1mph /  8.2km/h 12mph /  19.3km/h 50% 0in /  0.0mm
00:19 54.7 °F /  12.6 °C 36.3 °F /  2.4 °C 29.9in /  1014.0hPa NNE 5.2mph /  8.4km/h 13mph /  20.9km/h 50% 0in /  0.0mm
00:24 54.7 °F /  12.6 °C 36.3 °F /  2.4 °C 30in /  1014.2hPa ENE 5.3mph /  8.6km/h 13mph /  20.9km/h 50% 0in /  0.0mm
00:29 54.7 °F /  12.6 °C 36.3 °F /  2.4 °C 30in /  1014.2hPa ENE 5.4mph /  8.7km/h 9mph /  14.5km/h 50% 0in /  0.0mm
00:34 54.3 °F /  12.4 °C 36.1 °F /  2.3 °C 30in /  1014.5hPa Este 2.9mph /  4.7km/h 5.9mph /  9.5km/h 50.1% 0in /  0.0mm
00:39 54.1 °F /  12.3 °C 36.1 °F /  2.3 °C 30in /  1014.5hPa ESE 2.4mph /  3.9km/h 8.1mph /  13km/h 50.4% 0in /  0.0mm
00:44 54.1 °F /  12.3 °C 36 °F /  2.2 °C 30in /  1014.5hPa SE 4mph /  6.4km/h 9.2mph /  14.8km/h 50% 0in /  0.0mm
00:49 54.1 °F /  12.3 °C 35.6 °F /  2 °C 30in /  1014.5hPa Sur 4.3mph /  6.9km/h 9mph /  14.5km/h 49.5% 0in /  0.0mm
00:54 54.1 °F /  12.3 °C 35.4 °F /  1.9 °C 30in /  1014.5hPa SE 5mph /  8.1km/h 9mph /  14.5km/h 49% 0in /  0.0mm
00:59 54.3 °F /  12.4 °C 35.4 °F /  1.9 °C 30in /  1014.2hPa SE 5.2mph /  8.4km/h 9.7mph /  15.6km/h 49% 0in /  0.0mm
01:04 54.3 °F /  12.4 °C 35.4 °F /  1.9 °C 30in /  1014.3hPa SSE 5.3mph /  8.6km/h 10mph /  16.1km/h 48.8% 0in /  0.0mm
01:09 54.1 °F /  12.3 °C 35.4 °F /  1.9 °C 30in /  1014.3hPa SSE 5.4mph /  8.7km/h 10.4mph /  16.7km/h 48.9% 0in /  0.0mm
01:14 54.1 °F /  12.3 °C 34.9 °F /  1.6 °C 30in /  1014.3hPa Sur 5.8mph /  9.4km/h 13mph /  20.9km/h 48% 0in /  0.0mm
01:19 54.1 °F /  12.3 °C 34.9 °F /  1.6 °C 30in /  1014.3hPa Sur 5.9mph /  9.5km/h 15mph /  24.1km/h 48% 0in /  0.0mm
01:24 54.1 °F /  12.3 °C 34.9 °F /  1.6 °C 30in /  1014.3hPa ONO 7.1mph /  11.5km/h 15mph /  24.1km/h 48% 0in /  0.0mm
01:29 54.1 °F /  12.3 °C 34.7 °F /  1.5 °C 30in /  1014.2hPa Sur 7.4mph /  11.9km/h 9.2mph /  14.8km/h 47.6% 0in /  0.0mm
01:34 54 °F /  12.2 °C 34.7 °F /  1.5 °C 30in /  1014.2hPa SE 4.8mph /  7.8km/h 9mph /  14.5km/h 47.8% 0in /  0.0mm
01:39 54 °F /  12.2 °C 34.7 °F /  1.5 °C 30in /  1014.4hPa SSE 4.3mph /  6.9km/h 7.6mph /  12.2km/h 48% 0in /  0.0mm
01:44 53.8 °F /  12.1 °C 34.5 °F /  1.4 °C 30in /  1014.4hPa SSE 4.3mph /  6.9km/h 10.7mph /  17.2km/h 48% 0in /  0.0mm
01:49 53.8 °F /  12.1 °C 34.2 °F /  1.2 °C 30in /  1014.4hPa Sur 4.3mph /  6.9km/h 11.5mph /  18.5km/h 47.2% 0in /  0.0mm
01:54 53.8 °F /  12.1 °C 34 °F /  1.1 °C 30in /  1014.8hPa SE 5.9mph /  9.5km/h 13.7mph /  22km/h 47% 0in /  0.0mm
01:59 54 °F /  12.2 °C 34.2 °F /  1.2 °C 30in /  1014.8hPa SSE 6.2mph /  10km/h 14mph /  22.5km/h 46.9% 0in /  0.0mm
02:04 54 °F /  12.2 °C 34.2 °F /  1.2 °C 30in /  1014.8hPa SO 6.2mph /  10km/h 14mph /  22.5km/h 47% 0in /  0.0mm
02:09 53.8 °F /  12.1 °C 34 °F /  1.1 °C 30in /  1014.8hPa SO 6.2mph /  10km/h 13mph /  20.9km/h 47% 0in /  0.0mm
02:14 53.8 °F /  12.1 °C 34 °F /  1.1 °C 30in /  1014.8hPa NO 4.3mph /  7km/h 6.9mph /  11.1km/h 47% 0in /  0.0mm
02:19 53.4 °F /  11.9 °C 33.8 °F /  1 °C 30in /  1014.8hPa Oeste 4mph /  6.5km/h 9.2mph /  14.8km/h 47% 0in /  0.0mm
02:24 53.2 °F /  11.8 °C 33.6 °F /  0.9 °C 30in /  1014.8hPa ONO 4.6mph /  7.4km/h 11.5mph /  18.5km/h 47.3% 0in /  0.0mm
02:29 53.1 °F /  11.7 °C 34 °F /  1.1 °C 30in /  1014.6hPa Oeste 4.7mph /  7.6km/h 12mph /  19.3km/h 48% 0in /  0.0mm
02:34 53.1 °F /  11.7 °C 33.8 °F /  1 °C 30in /  1014.6hPa Oeste 6.2mph /  9.9km/h 16.1mph /  25.9km/h 48% 0in /  0.0mm
02:39 52.9 °F /  11.6 °C 33.6 °F /  0.9 °C 30in /  1014.6hPa Oeste 6.4mph /  10.3km/h 16mph /  25.7km/h 48% 0in /  0.0mm
02:44 52.5 °F /  11.4 °C 33.4 °F /  0.8 °C 30in /  1014.3hPa ONO 6.8mph /  11km/h 11.8mph /  19km/h 48% 0in /  0.0mm
02:49 52.5 °F /  11.4 °C 33.4 °F /  0.8 °C 30in /  1014.4hPa ONO 6.9mph /  11.1km/h 12.7mph /  20.4km/h 48.1% 0in /  0.0mm
02:54 52.5 °F /  11.4 °C 33.6 °F /  0.9 °C 30in /  1014.4hPa ONO 6.9mph /  11.1km/h 21.3mph /  34.3km/h 48.6% 0in /  0.0mm
02:59 52.3 °F /  11.3 °C 33.6 °F /  0.9 °C 30in /  1014.4hPa ONO 6.9mph /  11.1km/h 21mph /  33.8km/h 49% 0in /  0.0mm
03:04 52.5 °F /  11.4 °C 34 °F /  1.1 °C 30in /  1014.4hPa ONO 9.8mph /  15.7km/h 26.8mph /  43.1km/h 49% 0in /  0.0mm
03:09 52.9 °F /  11.6 °C 34.2 °F /  1.2 °C 30in /  1014.8hPa ONO 10.2mph /  16.4km/h 27mph /  43.5km/h 49% 0in /  0.0mm
03:14 52.9 °F /  11.6 °C 34.2 °F /  1.2 °C 30in /  1014.8hPa ONO 13.1mph /  21.1km/h 27.5mph /  44.3km/h 49% 0in /  0.0mm
03:19 52.9 °F /  11.6 °C 34.3 °F /  1.3 °C 30in /  1014.8hPa ONO 13.7mph /  22.1km/h 27mph /  43.5km/h 49.4% 0in /  0.0mm
03:24 52.7 °F /  11.5 °C 34.7 °F /  1.5 °C 30in /  1014.8hPa ONO 14.5mph /  23.4km/h 26mph /  41.8km/h 50% 0in /  0.0mm
03:29 52.7 °F /  11.5 °C 34.5 °F /  1.4 °C 30in /  1014.7hPa ONO 14.7mph /  23.7km/h 24.2mph /  38.9km/h 50% 0in /  0.0mm
03:34 52.7 °F /  11.5 °C 34.7 °F /  1.5 °C 30in /  1014.7hPa Oeste 13.3mph /  21.4km/h 24mph /  38.6km/h 50% 0in /  0.0mm
03:39 52.7 °F /  11.5 °C 34.5 °F /  1.4 °C 30in /  1014.9hPa Oeste 13mph /  20.9km/h 23.7mph /  38.1km/h 50% 0in /  0.0mm
03:44 52.7 °F /  11.5 °C 34.5 °F /  1.4 °C 30in /  1014.9hPa Oeste 12mph /  19.3km/h 25.6mph /  41.2km/h 50% 0in /  0.0mm
03:49 52.5 °F /  11.4 °C 34.5 °F /  1.4 °C 30in /  1014.9hPa Oeste 11.8mph /  19km/h 26mph /  41.8km/h 50% 0in /  0.0mm
03:54 52.5 °F /  11.4 °C 34.3 °F /  1.3 °C 30in /  1014.9hPa Oeste 11.8mph /  19km/h 30.1mph /  48.4km/h 50% 0in /  0.0mm
03:59 52.7 °F /  11.5 °C 34.5 °F /  1.4 °C 30in /  1014.5hPa ONO 11.8mph /  19km/h 30mph /  48.3km/h 50% 0in /  0.0mm
04:04 52.5 °F /  11.4 °C 34.5 °F /  1.4 °C 30in /  1014.5hPa Oeste 15.7mph /  25.3km/h 29mph /  46.7km/h 50% 0in /  0.0mm
04:09 52.5 °F /  11.4 °C 34.3 °F /  1.3 °C 30in /  1014.5hPa Oeste 16.3mph /  26.2km/h 23mph /  37km/h 50% 0in /  0.0mm
04:14 52.3 °F /  11.3 °C 34.2 °F /  1.2 °C 30in /  1014.2hPa Oeste 14.1mph /  22.7km/h 23mph /  37km/h 50% 0in /  0.0mm
04:19 52.3 °F /  11.3 °C 34.3 °F /  1.3 °C 30in /  1014.2hPa Oeste 13.7mph /  22.1km/h 26.1mph /  42km/h 50.3% 0in /  0.0mm
04:24 52.2 °F /  11.2 °C 34.7 °F /  1.5 °C 30in /  1014.2hPa Oeste 13.7mph /  22.1km/h 26.5mph /  42.6km/h 51% 0in /  0.0mm
04:29 52.2 °F /  11.2 °C 34.5 °F /  1.4 °C 30in /  1014.2hPa Oeste 13.7mph /  22.1km/h 29.7mph /  47.8km/h 51% 0in /  0.0mm
04:34 52.2 °F /  11.2 °C 34.5 °F /  1.4 °C 30in /  1014.4hPa ONO 13.7mph /  22.1km/h 30mph /  48.3km/h 51% 0in /  0.0mm
04:39 52 °F /  11.1 °C 34.3 °F /  1.3 °C 30in /  1014.4hPa Oeste 13.7mph /  22.1km/h 30mph /  48.3km/h 51% 0in /  0.0mm
04:44 52 °F /  11.1 °C 34.3 °F /  1.3 °C 30in /  1014.4hPa Oeste 12.1mph /  19.5km/h 22.5mph /  36.2km/h 51% 0in /  0.0mm
04:49 52 °F /  11.1 °C 34.3 °F /  1.3 °C 30in /  1014.4hPa Oeste 11.8mph /  19km/h 23mph /  37km/h 51% 0in /  0.0mm
04:54 51.8 °F /  11 °C 34.2 °F /  1.2 °C 30in /  1014.4hPa Oeste 11.8mph /  19km/h 21.5mph /  34.6km/h 51% 0in /  0.0mm
04:59 52 °F /  11.1 °C 34.3 °F /  1.3 °C 30in /  1014.2hPa ONO 11.8mph /  19km/h 23mph /  37km/h 51% 0in /  0.0mm
05:04 52.2 °F /  11.2 °C 34.3 °F /  1.3 °C 30in /  1014.2hPa ONO 12.8mph /  20.6km/h 27.9mph /  44.9km/h 50.4% 0in /  0.0mm
05:09 52.2 °F /  11.2 °C 34.2 °F /  1.2 °C 30in /  1014.4hPa ONO 13mph /  20.9km/h 28.8mph /  46.3km/h 50% 0in /  0.0mm
05:14 52.3 °F /  11.3 °C 34.2 °F /  1.2 °C 30in /  1014.4hPa ONO 16.2mph /  26km/h 32.4mph /  52.1km/h 50% 0in /  0.0mm
05:19 52.3 °F /  11.3 °C 34.2 °F /  1.2 °C 30in /  1014.4hPa ONO 16.8mph /  27km/h 32.2mph /  51.8km/h 50% 0in /  0.0mm
05:24 52.5 °F /  11.4 °C 34 °F /  1.1 °C 30in /  1014.4hPa ONO 17.6mph /  28.4km/h 31.1mph /  50.1km/h 49.3% 0in /  0.0mm
05:29 52.5 °F /  11.4 °C 34 °F /  1.1 °C 30in /  1014.2hPa ONO 17.8mph /  28.7km/h 31mph /  49.9km/h 49% 0in /  0.0mm
05:34 52.5 °F /  11.4 °C 34 °F /  1.1 °C 30in /  1014.2hPa ONO 17.5mph /  28.2km/h 27.9mph /  44.9km/h 49% 0in /  0.0mm
05:39 52.5 °F /  11.4 °C 34 °F /  1.1 °C 30in /  1014.3hPa ONO 17.5mph /  28.2km/h 28mph /  45.1km/h 49% 0in /  0.0mm
05:44 52.5 °F /  11.4 °C 34 °F /  1.1 °C 30in /  1014.3hPa ONO 15.9mph /  25.6km/h 25mph /  40.2km/h 49% 0in /  0.0mm
05:49 52.3 °F /  11.3 °C 34 °F /  1.1 °C 30in /  1014.3hPa ONO 15.6mph /  25.1km/h 24mph /  38.6km/h 49.6% 0in /  0.0mm
05:54 52.2 °F /  11.2 °C 34.2 °F /  1.2 °C 30in /  1014.3hPa ONO 11.5mph /  18.5km/h 18mph /  29km/h 50% 0in /  0.0mm
05:59 52.2 °F /  11.2 °C 34.2 °F /  1.2 °C 29.9in /  1014.1hPa ONO 10.7mph /  17.2km/h 12mph /  19.3km/h 50% 0in /  0.0mm
06:04 52.2 °F /  11.2 °C 34.2 °F /  1.2 °C 29.9in /  1014.1hPa Oeste 7.1mph /  11.5km/h 11.8mph /  19km/h 50% 0in /  0.0mm
06:09 52.2 °F /  11.2 °C 34.2 °F /  1.2 °C 30in /  1014.4hPa SSO 5.4mph /  8.7km/h 12mph /  19.3km/h 50% 0in /  0.0mm
06:14 52 °F /  11.1 °C 34 °F /  1.1 °C 30in /  1014.4hPa SO 4.3mph /  6.9km/h 8.1mph /  13km/h 50% 0in /  0.0mm
06:19 52 °F /  11.1 °C 34 °F /  1.1 °C 30in /  1014.4hPa SSO 3.6mph /  5.8km/h 9.2mph /  14.8km/h 50% 0in /  0.0mm
06:24 52.2 °F /  11.2 °C 34 °F /  1.1 °C 30in /  1014.4hPa SO 4.3mph /  6.9km/h 9.7mph /  15.6km/h 49.7% 0in /  0.0mm
06:29 52.2 °F /  11.2 °C 34 °F /  1.1 °C 30in /  1014.4hPa Oeste 4.7mph /  7.6km/h 12.5mph /  20.1km/h 49.8% 0in /  0.0mm
06:34 52.3 °F /  11.3 °C 33.8 °F /  1 °C 30in /  1014.4hPa Oeste 5mph /  8.1km/h 13mph /  20.9km/h 49.2% 0in /  0.0mm
06:39 52.3 °F /  11.3 °C 33.6 °F /  0.9 °C 30in /  1014.6hPa Oeste 5.2mph /  8.4km/h 12.7mph /  20.4km/h 49% 0in /  0.0mm
06:44 52.5 °F /  11.4 °C 33.8 °F /  1 °C 30in /  1014.6hPa OSO 5.8mph /  9.4km/h 13mph /  20.9km/h 49% 0in /  0.0mm
06:49 52.3 °F /  11.3 °C 34 °F /  1.1 °C 30in /  1014.6hPa Oeste 6.2mph /  10km/h 8.5mph /  13.7km/h 49.5% 0in /  0.0mm
06:54 52.3 °F /  11.3 °C 34.2 °F /  1.2 °C 30in /  1014.6hPa ONO 5mph /  8km/h 9mph /  14.5km/h 50% 0in /  0.0mm
06:59 52.3 °F /  11.3 °C 34.2 °F /  1.2 °C 30in /  1014.4hPa Oeste 4.3mph /  6.9km/h 10.4mph /  16.7km/h 50% 0in /  0.0mm
07:04 52.3 °F /  11.3 °C 34.2 °F /  1.2 °C 30in /  1014.4hPa Oeste 4.5mph /  7.3km/h 10mph /  16.1km/h 50% 0in /  0.0mm
07:09 52.5 °F /  11.4 °C 34.3 °F /  1.3 °C 30in /  1014.4hPa Oeste 4.7mph /  7.6km/h 13.5mph /  21.7km/h 50% 0in /  0.0mm
07:14 52.7 °F /  11.5 °C 34.5 °F /  1.4 °C 30in /  1014.2hPa Oeste 5.8mph /  9.3km/h 15.2mph /  24.5km/h 50% 0in /  0.0mm
07:19 52.9 °F /  11.6 °C 34.3 °F /  1.3 °C 30in /  1014.2hPa Oeste 6.4mph /  10.3km/h 15mph /  24.1km/h 49.4% 0in /  0.0mm
07:24 52.9 °F /  11.6 °C 34.2 °F /  1.2 °C 30in /  1014.2hPa Oeste 6.4mph /  10.3km/h 13mph /  20.9km/h 49% 0in /  0.0mm
07:29 52.9 °F /  11.6 °C 34.2 °F /  1.2 °C 29.9in /  1014.1hPa Oeste 6.4mph /  10.3km/h 10mph /  16.1km/h 49% 0in /  0.0mm
07:34 52.9 °F /  11.6 °C 34.2 °F /  1.2 °C 29.9in /  1014.1hPa Oeste 6.3mph /  10.1km/h 13.8mph /  22.2km/h 49% 0in /  0.0mm
07:39 53.1 °F /  11.7 °C 34.3 °F /  1.3 °C 30in /  1014.4hPa Oeste 6.2mph /  10km/h 14mph /  22.5km/h 49% 0in /  0.0mm
07:44 53.2 °F /  11.8 °C 34.5 °F /  1.4 °C 30in /  1014.4hPa ONO 7.1mph /  11.4km/h 20.1mph /  32.3km/h 49% 0in /  0.0mm
07:49 53.4 °F /  11.9 °C 34.7 °F /  1.5 °C 30in /  1014.4hPa Oeste 7.6mph /  12.2km/h 21mph /  33.8km/h 49% 0in /  0.0mm
07:54 53.4 °F /  11.9 °C 34.7 °F /  1.5 °C 30in /  1014.5hPa ONO 8.1mph /  13.1km/h 16mph /  25.7km/h 49% 0in /  0.0mm
07:59 53.4 °F /  11.9 °C 34.7 °F /  1.5 °C 30in /  1014.5hPa Oeste 8.5mph /  13.7km/h 14mph /  22.5km/h 49% 0in /  0.0mm
08:04 53.4 °F /  11.9 °C 34.7 °F /  1.5 °C 30in /  1014.5hPa Oeste 6.5mph /  10.5km/h 19mph /  30.6km/h 49% 0in /  0.0mm
08:09 53.4 °F /  11.9 °C 34.7 °F /  1.5 °C 30in /  1014.5hPa OSO 5.4mph /  8.7km/h 21.9mph /  35.2km/h 49% 0in /  0.0mm
08:14 53.8 °F /  12.1 °C 34.9 °F /  1.6 °C 30in /  1014.5hPa Oeste 7.1mph /  11.4km/h 22mph /  35.4km/h 48.8% 0in /  0.0mm
08:19 54 °F /  12.2 °C 34.9 °F /  1.6 °C 30in /  1014.5hPa Oeste 8.1mph /  13km/h 19mph /  30.6km/h 48% 0in /  0.0mm
08:24 54.3 °F /  12.4 °C 34.9 °F /  1.6 °C 30in /  1014.5hPa Oeste 9.1mph /  14.7km/h 16mph /  25.7km/h 47.7% 0in /  0.0mm
08:29 54.3 °F /  12.4 °C 34.9 °F /  1.6 °C 30in /  1014.5hPa ONO 9.7mph /  15.6km/h 16.1mph /  25.9km/h 47.9% 0in /  0.0mm
08:34 54.3 °F /  12.4 °C 35.1 °F /  1.7 °C 30in /  1014.5hPa ONO 8.9mph /  14.4km/h 16mph /  25.7km/h 48% 0in /  0.0mm
08:39 54.5 °F /  12.5 °C 34.9 °F /  1.6 °C 30in /  1014.5hPa ONO 8.5mph /  13.7km/h 17.3mph /  27.8km/h 47.5% 0in /  0.0mm
08:44 54.7 °F /  12.6 °C 34.9 °F /  1.6 °C 30in /  1014.5hPa ONO 9.6mph /  15.4km/h 17mph /  27.4km/h 47% 0in /  0.0mm
08:49 54.9 °F /  12.7 °C 34.9 °F /  1.6 °C 30in /  1014.5hPa ONO 10.2mph /  16.4km/h 16.1mph /  25.9km/h 46.7% 0in /  0.0mm
08:54 55 °F /  12.8 °C 34.7 °F /  1.5 °C 30in /  1014.6hPa ONO 9.6mph /  15.4km/h 16mph /  25.7km/h 46% 0in /  0.0mm
08:59 55 °F /  12.8 °C 35.1 °F /  1.7 °C 30in /  1014.6hPa NO 9.2mph /  14.8km/h 13mph /  20.9km/h 46.7% 0in /  0.0mm
09:04 55 °F /  12.8 °C 35.2 °F /  1.8 °C 30in /  1014.6hPa Oeste 7.3mph /  11.7km/h 13.8mph /  22.2km/h 47% 0in /  0.0mm
09:09 55 °F /  12.8 °C 35.2 °F /  1.8 °C 30in /  1014.7hPa Oeste 6.2mph /  10km/h 17.3mph /  27.8km/h 47% 0in /  0.0mm
09:14 55.2 °F /  12.9 °C 35.2 °F /  1.8 °C 30in /  1014.7hPa Oeste 7.8mph /  12.5km/h 20.1mph /  32.3km/h 47% 0in /  0.0mm
09:19 55.2 °F /  12.9 °C 35.4 °F /  1.9 °C 30in /  1014.7hPa Oeste 8.7mph /  14km/h 21mph /  33.8km/h 47% 0in /  0.0mm
09:24 55.6 °F /  13.1 °C 35.6 °F /  2 °C 30in /  1014.7hPa Oeste 9mph /  14.5km/h 21mph /  33.8km/h 46.9% 0in /  0.0mm
09:29 55.6 °F /  13.1 °C 35.8 °F /  2.1 °C 30in /  1014.6hPa Oeste 9.2mph /  14.8km/h 16mph /  25.7km/h 47% 0in /  0.0mm
09:34 55.6 °F /  13.1 °C 35.6 °F /  2 °C 30in /  1014.6hPa OSO 8.9mph /  14.3km/h 19.6mph /  31.5km/h 46.9% 0in /  0.0mm
09:39 55.8 °F /  13.2 °C 35.8 °F /  2.1 °C 30in /  1014.6hPa Oeste 8.7mph /  14km/h 20mph /  32.2km/h 47% 0in /  0.0mm
09:44 55.9 °F /  13.3 °C 36 °F /  2.2 °C 30in /  1014.5hPa OSO 8mph /  12.9km/h 19.2mph /  30.9km/h 47% 0in /  0.0mm
09:49 56.1 °F /  13.4 °C 35.6 °F /  2 °C 30in /  1014.5hPa OSO 7.6mph /  12.2km/h 20mph /  32.2km/h 46.1% 0in /  0.0mm
09:54 56.1 °F /  13.4 °C 35.6 °F /  2 °C 30in /  1014.5hPa Oeste 8.3mph /  13.4km/h 20mph /  32.2km/h 46% 0in /  0.0mm
09:59 56.3 °F /  13.5 °C 35.8 °F /  2.1 °C 30in /  1014.4hPa Oeste 8.7mph /  14km/h 15mph /  24.1km/h 46% 0in /  0.0mm
10:04 56.5 °F /  13.6 °C 36 °F /  2.2 °C 30in /  1014.4hPa Oeste 8.3mph /  13.4km/h 14mph /  22.5km/h 46.1% 0in /  0.0mm
10:09 56.7 °F /  13.7 °C 36.3 °F /  2.4 °C 30in /  1014.5hPa OSO 8.1mph /  13km/h 14mph /  22.5km/h 46.4% 0in /  0.0mm
10:14 56.8 °F /  13.8 °C 36.3 °F /  2.4 °C 30in /  1014.5hPa OSO 6.7mph /  10.8km/h 14.5mph /  23.3km/h 46% 0in /  0.0mm
10:19 56.8 °F /  13.8 °C 36.3 °F /  2.4 °C 30in /  1014.5hPa Oeste 5.9mph /  9.5km/h 15mph /  24.1km/h 46% 0in /  0.0mm
10:24 56.8 °F /  13.8 °C 36.3 °F /  2.4 °C 30in /  1014.5hPa OSO 6.8mph /  11km/h 15mph /  24.1km/h 46% 0in /  0.0mm
10:29 56.8 °F /  13.8 °C 36.3 °F /  2.4 °C 30in /  1014.4hPa Oeste 7.4mph /  11.9km/h 15mph /  24.1km/h 46% 0in /  0.0mm
10:34 56.8 °F /  13.8 °C 36.3 °F /  2.4 °C 30in /  1014.4hPa Oeste 8.2mph /  13.2km/h 15mph /  24.1km/h 46% 0in /  0.0mm
10:39 56.8 °F /  13.8 °C 36.3 °F /  2.4 °C 30in /  1014.4hPa Oeste 8.7mph /  14km/h 19.6mph /  31.5km/h 46% 0in /  0.0mm
10:44 56.8 °F /  13.8 °C 36.3 °F /  2.4 °C 30in /  1014.2hPa OSO 8.6mph /  13.8km/h 20mph /  32.2km/h 46% 0in /  0.0mm
10:49 57 °F /  13.9 °C 36.1 °F /  2.3 °C 30in /  1014.2hPa OSO 8.5mph /  13.7km/h 16.1mph /  25.9km/h 45.4% 0in /  0.0mm
10:54 57.2 °F /  14 °C 36.5 °F /  2.5 °C 30in /  1014.2hPa OSO 8.3mph /  13.3km/h 19mph /  30.6km/h 45.8% 0in /  0.0mm
10:59 57.4 °F /  14.1 °C 36.5 °F /  2.5 °C 30in /  1014.2hPa Oeste 8.1mph /  13km/h 19mph /  30.6km/h 45.5% 0in /  0.0mm
11:04 57.2 °F /  14 °C 36.7 °F /  2.6 °C 30in /  1014.2hPa Oeste 7.8mph /  12.5km/h 17.3mph /  27.8km/h 45.9% 0in /  0.0mm
11:09 57.4 °F /  14.1 °C 36.7 °F /  2.6 °C 30in /  1014.2hPa ONO 7.6mph /  12.2km/h 17.3mph /  27.8km/h 46% 0in /  0.0mm
11:14 57.4 °F /  14.1 °C 36.5 °F /  2.5 °C 29.9in /  1014.1hPa OSO 8.6mph /  13.9km/h 18.4mph /  29.6km/h 45.6% 0in /  0.0mm
11:19 57.6 °F /  14.2 °C 36.5 °F /  2.5 °C 29.9in /  1014.1hPa Oeste 9.2mph /  14.8km/h 19.2mph /  30.9km/h 45.4% 0in /  0.0mm
11:24 57.6 °F /  14.2 °C 36.5 °F /  2.5 °C 29.9in /  1014.1hPa SO 9.8mph /  15.8km/h 20mph /  32.2km/h 45% 0in /  0.0mm
11:29 57.7 °F /  14.3 °C 36.7 °F /  2.6 °C 29.9in /  1013.9hPa OSO 10.2mph /  16.4km/h 20mph /  32.2km/h 45.5% 0in /  0.0mm
11:34 57.7 °F /  14.3 °C 36.7 °F /  2.6 °C 29.9in /  1013.9hPa OSO 10.1mph /  16.2km/h 19.7mph /  31.7km/h 45.3% 0in /  0.0mm
11:39 57.7 °F /  14.3 °C 36.7 °F /  2.6 °C 29.9in /  1013.9hPa OSO 10mph /  16.1km/h 20mph /  32.2km/h 45.2% 0in /  0.0mm
11:44 57.9 °F /  14.4 °C 36.9 °F /  2.7 °C 29.9in /  1013.8hPa OSO 10.9mph /  17.5km/h 19mph /  30.6km/h 45.4% 0in /  0.0mm
11:49 57.9 °F /  14.4 °C 36.7 °F /  2.6 °C 29.9in /  1013.8hPa OSO 11.4mph /  18.4km/h 23mph /  37km/h 45% 0in /  0.0mm
11:54 57.9 °F /  14.4 °C 37 °F /  2.8 °C 29.9in /  1013.8hPa OSO 10.6mph /  17.1km/h 23mph /  37km/h 45.4% 0in /  0.0mm
11:59 58.1 °F /  14.5 °C 36.9 °F /  2.7 °C 29.9in /  1013.6hPa Oeste 10.2mph /  16.4km/h 19mph /  30.6km/h 45% 0in /  0.0mm
12:04 58.3 °F /  14.6 °C 37.6 °F /  3.1 °C 29.9in /  1013.6hPa Oeste 8.8mph /  14.1km/h 17mph /  27.4km/h 46% 0in /  0.0mm
12:09 58.5 °F /  14.7 °C 37.6 °F /  3.1 °C 29.9in /  1013.6hPa OSO 8.1mph /  13km/h 15.6mph /  25.1km/h 45.8% 0in /  0.0mm
12:14 58.6 °F /  14.8 °C 37.4 °F /  3 °C 29.9in /  1013.4hPa OSO 8.3mph /  13.4km/h 16.1mph /  25.9km/h 45.2% 0in /  0.0mm
12:19 58.6 °F /  14.8 °C 37.4 °F /  3 °C 29.9in /  1013.4hPa Oeste 8.5mph /  13.7km/h 15.2mph /  24.5km/h 45.2% 0in /  0.0mm
12:24 58.8 °F /  14.9 °C 37.6 °F /  3.1 °C 29.9in /  1013.4hPa OSO 8.9mph /  14.4km/h 15mph /  24.1km/h 45% 0in /  0.0mm
12:29 59.2 °F /  15.1 °C 37.9 °F /  3.3 °C 29.9in /  1012.9hPa OSO 9.2mph /  14.8km/h 14mph /  22.5km/h 45% 0in /  0.0mm
12:34 59.5 °F /  15.3 °C 37.9 °F /  3.3 °C 29.9in /  1012.9hPa OSO 7.7mph /  12.4km/h 14mph /  22.5km/h 44.6% 0in /  0.0mm
12:39 59.7 °F /  15.4 °C 37.8 °F /  3.2 °C 29.9in /  1012.9hPa OSO 6.9mph /  11.1km/h 17.3mph /  27.8km/h 44% 0in /  0.0mm
12:44 59.7 °F /  15.4 °C 37.8 °F /  3.2 °C 29.9in /  1012.9hPa OSO 7.9mph /  12.7km/h 17mph /  27.4km/h 44% 0in /  0.0mm
12:49 60.1 °F /  15.6 °C 37.9 °F /  3.3 °C 29.9in /  1012.9hPa OSO 8.5mph /  13.7km/h 13mph /  20.9km/h 44% 0in /  0.0mm
12:54 60.1 °F /  15.6 °C 37.8 °F /  3.2 °C 29.9in /  1012.9hPa Oeste 8mph /  12.8km/h 20.8mph /  33.5km/h 43.4% 0in /  0.0mm
12:59 60.4 °F /  15.8 °C 38.1 °F /  3.4 °C 29.9in /  1012.5hPa ONO 7.6mph /  12.2km/h 21mph /  33.8km/h 43.6% 0in /  0.0mm
13:04 60.6 °F /  15.9 °C 37.9 °F /  3.3 °C 29.9in /  1012.5hPa Oeste 10.7mph /  17.2km/h 23mph /  37km/h 42.9% 0in /  0.0mm
13:09 60.8 °F /  16 °C 37.6 °F /  3.1 °C 29.9in /  1012.5hPa ONO 12.3mph /  19.8km/h 24.6mph /  39.6km/h 42.2% 0in /  0.0mm
13:14 61.2 °F /  16.2 °C 37.8 °F /  3.2 °C 29.9in /  1012.3hPa Oeste 12.4mph /  20km/h 25mph /  40.2km/h 42% 0in /  0.0mm
13:19 61.2 °F /  16.2 °C 37.9 °F /  3.3 °C 29.9in /  1012.3hPa Oeste 12.5mph /  20.1km/h 22.3mph /  35.9km/h 41.9% 0in /  0.0mm
13:24 61.3 °F /  16.3 °C 37.6 °F /  3.1 °C 29.9in /  1012.3hPa Oeste 12.4mph /  19.9km/h 22mph /  35.4km/h 41.2% 0in /  0.0mm
13:29 61.3 °F /  16.3 °C 37.4 °F /  3 °C 29.9in /  1011.9hPa ONO 12.3mph /  19.8km/h 21mph /  33.8km/h 41% 0in /  0.0mm
13:34 61.5 °F /  16.4 °C 37.6 °F /  3.1 °C 29.9in /  1011.9hPa ONO 11.2mph /  18.1km/h 17.3mph /  27.8km/h 41% 0in /  0.0mm
13:39 62.1 °F /  16.7 °C 37.8 °F /  3.2 °C 29.9in /  1011.9hPa Oeste 10.7mph /  17.2km/h 17mph /  27.4km/h 40.7% 0in /  0.0mm
13:44 62.1 °F /  16.7 °C 37.6 °F /  3.1 °C 29.9in /  1011.6hPa Oeste 10.1mph /  16.2km/h 20.8mph /  33.5km/h 40% 0in /  0.0mm
13:49 62.2 °F /  16.8 °C 37.4 °F /  3 °C 29.9in /  1011.6hPa Oeste 9.7mph /  15.6km/h 25.6mph /  41.2km/h 39.6% 0in /  0.0mm
13:54 62.2 °F /  16.8 °C 37.4 °F /  3 °C 29.9in /  1011.6hPa Oeste 11mph /  17.7km/h 26mph /  41.8km/h 39.6% 0in /  0.0mm
13:59 62.4 °F /  16.9 °C 37.6 °F /  3.1 °C 29.9in /  1011.5hPa ONO 11.8mph /  19km/h 20mph /  32.2km/h 39.5% 0in /  0.0mm
14:04 62.4 °F /  16.9 °C 37.2 °F /  2.9 °C 29.9in /  1011.5hPa Oeste 10.6mph /  17.1km/h 21.3mph /  34.3km/h 39% 0in /  0.0mm
14:09 62.4 °F /  16.9 °C 37.4 °F /  3 °C 29.9in /  1011.5hPa Oeste 10mph /  16.1km/h 21mph /  33.8km/h 39.3% 0in /  0.0mm
14:14 62.8 °F /  17.1 °C 37.6 °F /  3.1 °C 29.9in /  1011.4hPa ONO 10.9mph /  17.5km/h 21mph /  33.8km/h 39.3% 0in /  0.0mm
14:19 63 °F /  17.2 °C 37.4 °F /  3 °C 29.9in /  1011.4hPa ONO 11.4mph /  18.4km/h 21.9mph /  35.2km/h 38.8% 0in /  0.0mm
14:24 63 °F /  17.2 °C 37.6 °F /  3.1 °C 29.9in /  1011.4hPa ONO 10.9mph /  17.6km/h 22mph /  35.4km/h 39% 0in /  0.0mm
14:29 62.8 °F /  17.1 °C 37.4 °F /  3 °C 29.9in /  1011.4hPa ONO 10.7mph /  17.2km/h 24.6mph /  39.6km/h 39% 0in /  0.0mm
14:34 62.8 °F /  17.1 °C 37.6 °F /  3.1 °C 29.9in /  1011.4hPa ONO 11mph /  17.7km/h 25mph /  40.2km/h 39.2% 0in /  0.0mm
14:39 62.8 °F /  17.1 °C 37.8 °F /  3.2 °C 29.9in /  1011.4hPa ONO 11.2mph /  18km/h 16mph /  25.7km/h 39.5% 0in /  0.0mm
14:44 63 °F /  17.2 °C 38.1 °F /  3.4 °C 29.9in /  1011.3hPa NO 8.1mph /  13.1km/h 12.3mph /  19.8km/h 39.9% 0in /  0.0mm
14:49 63 °F /  17.2 °C 37.9 °F /  3.3 °C 29.9in /  1011.3hPa ONO 6.2mph /  10km/h 21.9mph /  35.2km/h 39.6% 0in /  0.0mm
14:54 62.6 °F /  17 °C 37.9 °F /  3.3 °C 29.9in /  1011.3hPa ONO 7.8mph /  12.5km/h 22mph /  35.4km/h 40% 0in /  0.0mm
14:59 62.4 °F /  16.9 °C 37.9 °F /  3.3 °C 29.9in /  1011.0hPa Oeste 8.7mph /  14km/h 24.6mph /  39.6km/h 40.2% 0in /  0.0mm
15:04 62.6 °F /  17 °C 37.9 °F /  3.3 °C 29.9in /  1011.0hPa ONO 9.4mph /  15.1km/h 25mph /  40.2km/h 40% 0in /  0.0mm
15:09 62.8 °F /  17.1 °C 38.5 °F /  3.6 °C 29.9in /  1011.0hPa ONO 9.7mph /  15.6km/h 24mph /  38.6km/h 40.7% 0in /  0.0mm
15:14 62.8 °F /  17.1 °C 38.7 °F /  3.7 °C 29.9in /  1010.9hPa ONO 10mph /  16.1km/h 21mph /  33.8km/h 41% 0in /  0.0mm
15:19 63 °F /  17.2 °C 38.8 °F /  3.8 °C 29.9in /  1010.9hPa Oeste 10.2mph /  16.4km/h 20mph /  32.2km/h 41% 0in /  0.0mm
15:24 63 °F /  17.2 °C 38.8 °F /  3.8 °C 29.9in /  1010.9hPa OSO 9.1mph /  14.7km/h 19mph /  30.6km/h 41% 0in /  0.0mm
15:29 63 °F /  17.2 °C 38.8 °F /  3.8 °C 29.8in /  1010.7hPa Oeste 8.5mph /  13.7km/h 18.4mph /  29.6km/h 41% 0in /  0.0mm
15:34 63 °F /  17.2 °C 39 °F /  3.9 °C 29.8in /  1010.7hPa ONO 7.8mph /  12.5km/h 16.8mph /  27km/h 41% 0in /  0.0mm
15:39 63.1 °F /  17.3 °C 39 °F /  3.9 °C 29.8in /  1010.7hPa Oeste 7.4mph /  11.9km/h 17.3mph /  27.8km/h 41% 0in /  0.0mm
15:44 63.3 °F /  17.4 °C 39.2 °F /  4 °C 29.8in /  1010.4hPa Oeste 7.5mph /  12.1km/h 15mph /  24.1km/h 41% 0in /  0.0mm
15:49 63.5 °F /  17.5 °C 39.4 °F /  4.1 °C 29.8in /  1010.4hPa Oeste 7.6mph /  12.2km/h 26.3mph /  42.3km/h 41% 0in /  0.0mm
15:54 63.7 °F /  17.6 °C 39.6 °F /  4.2 °C 29.8in /  1010.4hPa Oeste 8.2mph /  13.2km/h 26.5mph /  42.6km/h 41% 0in /  0.0mm
15:59 63.7 °F /  17.6 °C 39.6 °F /  4.2 °C 29.8in /  1010.3hPa ONO 8.5mph /  13.7km/h 25.3mph /  40.7km/h 41% 0in /  0.0mm
16:04 63.9 °F /  17.7 °C 39.6 °F /  4.2 °C 29.8in /  1010.3hPa ONO 10.6mph /  17.1km/h 25mph /  40.2km/h 41% 0in /  0.0mm
16:09 63.9 °F /  17.7 °C 39.7 °F /  4.3 °C 29.8in /  1010.4hPa ONO 11.8mph /  19km/h 26.8mph /  43.1km/h 41% 0in /  0.0mm
16:14 64 °F /  17.8 °C 39.7 °F /  4.3 °C 29.8in /  1010.4hPa ONO 12.2mph /  19.7km/h 27mph /  43.5km/h 41% 0in /  0.0mm
16:19 64.2 °F /  17.9 °C 39.9 °F /  4.4 °C 29.8in /  1010.4hPa ONO 12.5mph /  20.1km/h 25mph /  40.2km/h 41% 0in /  0.0mm
16:24 64.2 °F /  17.9 °C 40.1 °F /  4.5 °C 29.8in /  1010.5hPa Oeste 10.4mph /  16.7km/h 18.4mph /  29.6km/h 40.9% 0in /  0.0mm
16:29 64.4 °F /  18 °C 39.6 °F /  4.2 °C 29.8in /  1010.5hPa ONO 9.2mph /  14.8km/h 24.2mph /  38.9km/h 40.1% 0in /  0.0mm
16:34 64.2 °F /  17.9 °C 39.4 °F /  4.1 °C 29.8in /  1010.5hPa Oeste 11.2mph /  18km/h 27.6mph /  44.4km/h 40% 0in /  0.0mm
16:39 64.2 °F /  17.9 °C 39.4 °F /  4.1 °C 29.8in /  1010.7hPa ONO 12.3mph /  19.8km/h 28mph /  45.1km/h 40% 0in /  0.0mm
16:44 64 °F /  17.8 °C 39.7 °F /  4.3 °C 29.8in /  1010.7hPa ONO 12mph /  19.3km/h 23mph /  37km/h 40.9% 0in /  0.0mm
16:49 63.9 °F /  17.7 °C 39.7 °F /  4.3 °C 29.8in /  1010.7hPa ONO 11.8mph /  19km/h 24.2mph /  38.9km/h 41% 0in /  0.0mm
16:54 63.9 °F /  17.7 °C 39.9 °F /  4.4 °C 29.8in /  1010.7hPa ONO 13mph /  20.9km/h 24mph /  38.6km/h 41.5% 0in /  0.0mm
16:59 63.9 °F /  17.7 °C 40.3 °F /  4.6 °C 29.8in /  1010.7hPa ONO 13.7mph /  22.1km/h 22mph /  35.4km/h 42% 0in /  0.0mm
17:04 63.7 °F /  17.6 °C 40.1 °F /  4.5 °C 29.8in /  1010.7hPa ONO 11.7mph /  18.8km/h 24.2mph /  38.9km/h 42% 0in /  0.0mm
17:09 63.7 °F /  17.6 °C 40.5 °F /  4.7 °C 29.8in /  1010.7hPa ONO 10.7mph /  17.2km/h 24mph /  38.6km/h 42.5% 0in /  0.0mm
17:14 63.5 °F /  17.5 °C 40.6 °F /  4.8 °C 29.8in /  1010.5hPa ONO 11.1mph /  17.9km/h 19mph /  30.6km/h 42.9% 0in /  0.0mm
17:19 63.3 °F /  17.4 °C 40.5 °F /  4.7 °C 29.8in /  1010.5hPa ONO 11.4mph /  18.4km/h 21.3mph /  34.3km/h 43% 0in /  0.0mm
17:24 63.3 °F /  17.4 °C 40.5 °F /  4.7 °C 29.8in /  1010.5hPa ONO 10.5mph /  16.9km/h 21mph /  33.8km/h 43% 0in /  0.0mm
17:29 63.1 °F /  17.3 °C 40.3 °F /  4.6 °C 29.8in /  1010.5hPa ONO 10mph /  16.1km/h 17mph /  27.4km/h 43% 0in /  0.0mm
17:34 63.1 °F /  17.3 °C 40.5 °F /  4.7 °C 29.8in /  1010.5hPa ONO 10.1mph /  16.3km/h 21.5mph /  34.6km/h 43.1% 0in /  0.0mm
17:39 63.3 °F /  17.4 °C 40.5 °F /  4.7 °C 29.8in /  1010.5hPa ONO 10.2mph /  16.4km/h 26.5mph /  42.6km/h 43.2% 0in /  0.0mm
17:44 63.3 °F /  17.4 °C 40.6 °F /  4.8 °C 29.8in /  1010.5hPa ONO 12.2mph /  19.7km/h 26mph /  41.8km/h 43.4% 0in /  0.0mm
17:49 63.1 °F /  17.3 °C 41 °F /  5 °C 29.8in /  1010.5hPa ONO 13.5mph /  21.7km/h 23mph /  37km/h 44% 0in /  0.0mm
17:54 63.1 °F /  17.3 °C 40.8 °F /  4.9 °C 29.8in /  1010.7hPa ONO 12.9mph /  20.7km/h 22mph /  35.4km/h 44% 0in /  0.0mm
17:59 63.1 °F /  17.3 °C 41 °F /  5 °C 29.8in /  1010.7hPa ONO 12.5mph /  20.1km/h 22.5mph /  36.2km/h 44.3% 0in /  0.0mm
18:04 63.1 °F /  17.3 °C 41.4 °F /  5.2 °C 29.8in /  1010.7hPa ONO 12.8mph /  20.6km/h 23mph /  37km/h 45% 0in /  0.0mm
18:09 63 °F /  17.2 °C 41.4 °F /  5.2 °C 29.8in /  1010.7hPa Oeste 13mph /  20.9km/h 23mph /  37km/h 45% 0in /  0.0mm
18:14 63 °F /  17.2 °C 41.4 °F /  5.2 °C 29.8in /  1010.7hPa Oeste 11.1mph /  17.8km/h 17mph /  27.4km/h 45% 0in /  0.0mm
18:19 63 °F /  17.2 °C 41.7 °F /  5.4 °C 29.8in /  1010.7hPa ONO 10mph /  16.1km/h 18.4mph /  29.6km/h 45.8% 0in /  0.0mm
18:24 63 °F /  17.2 °C 41.7 °F /  5.4 °C 29.9in /  1011.0hPa Oeste 10.1mph /  16.3km/h 18mph /  29km/h 46% 0in /  0.0mm
18:29 63 °F /  17.2 °C 41.7 °F /  5.4 °C 29.9in /  1011.0hPa Oeste 10.2mph /  16.4km/h 25.3mph /  40.7km/h 46% 0in /  0.0mm
18:34 63 °F /  17.2 °C 41.7 °F /  5.4 °C 29.9in /  1011.0hPa Oeste 9.3mph /  14.9km/h 25.3mph /  40.7km/h 46% 0in /  0.0mm
18:39 62.8 °F /  17.1 °C 42.3 °F /  5.7 °C 29.9in /  1011.3hPa Oeste 8.7mph /  14km/h 16.8mph /  27km/h 46.9% 0in /  0.0mm
18:44 62.8 °F /  17.1 °C 42.3 °F /  5.7 °C 29.9in /  1011.3hPa Oeste 8.6mph /  13.8km/h 17.3mph /  27.8km/h 47% 0in /  0.0mm
18:49 62.6 °F /  17 °C 42.3 °F /  5.7 °C 29.9in /  1011.3hPa Oeste 8.5mph /  13.7km/h 17mph /  27.4km/h 47.3% 0in /  0.0mm
18:54 62.4 °F /  16.9 °C 42.4 °F /  5.8 °C 29.9in /  1011.5hPa Oeste 7.8mph /  12.6km/h 13mph /  20.9km/h 48% 0in /  0.0mm
18:59 62.4 °F /  16.9 °C 42.4 °F /  5.8 °C 29.9in /  1011.5hPa ONO 7.4mph /  11.9km/h 21.3mph /  34.3km/h 48% 0in /  0.0mm
19:04 62.4 °F /  16.9 °C 42.6 °F /  5.9 °C 29.9in /  1011.5hPa Oeste 8.9mph /  14.4km/h 21.9mph /  35.2km/h 48% 0in /  0.0mm
19:09 62.4 °F /  16.9 °C 42.6 °F /  5.9 °C 29.9in /  1011.5hPa Oeste 9.7mph /  15.6km/h 22mph /  35.4km/h 48% 0in /  0.0mm
19:14 62.6 °F /  17 °C 42.6 °F /  5.9 °C 29.9in /  1011.5hPa Oeste 10.3mph /  16.6km/h 22mph /  35.4km/h 48% 0in /  0.0mm
19:19 62.6 °F /  17 °C 42.6 °F /  5.9 °C 29.9in /  1011.5hPa ONO 10.7mph /  17.2km/h 25.3mph /  40.7km/h 48% 0in /  0.0mm
19:24 62.6 °F /  17 °C 42.6 °F /  5.9 °C 29.9in /  1011.7hPa Oeste 11.1mph /  17.9km/h 25mph /  40.2km/h 48% 0in /  0.0mm
19:29 62.4 °F /  16.9 °C 42.6 °F /  5.9 °C 29.9in /  1011.7hPa ONO 11.4mph /  18.4km/h 19mph /  30.6km/h 48.2% 0in /  0.0mm
19:34 62.4 °F /  16.9 °C 43 °F /  6.1 °C 29.9in /  1011.7hPa ONO 10.9mph /  17.6km/h 19.6mph /  31.5km/h 49% 0in /  0.0mm
19:39 62.4 °F /  16.9 °C 43 °F /  6.1 °C 29.9in /  1011.8hPa NO 10.7mph /  17.2km/h 26.5mph /  42.6km/h 49% 0in /  0.0mm
19:44 62.2 °F /  16.8 °C 42.8 °F /  6 °C 29.9in /  1011.8hPa ONO 11.1mph /  17.9km/h 26mph /  41.8km/h 49% 0in /  0.0mm
19:49 62.2 °F /  16.8 °C 42.8 °F /  6 °C 29.9in /  1011.8hPa ONO 11.4mph /  18.4km/h 23mph /  37km/h 49% 0in /  0.0mm
19:54 62.1 °F /  16.7 °C 43 °F /  6.1 °C 29.9in /  1011.8hPa ONO 12.1mph /  19.5km/h 23mph /  37km/h 49.6% 0in /  0.0mm
19:59 61.9 °F /  16.6 °C 43 °F /  6.1 °C 29.9in /  1011.8hPa ONO 12.5mph /  20.1km/h 21mph /  33.8km/h 50% 0in /  0.0mm
20:04 61.5 °F /  16.4 °C 43.2 °F /  6.2 °C 29.9in /  1011.8hPa ONO 11.4mph /  18.3km/h 19mph /  30.6km/h 50.7% 0in /  0.0mm
20:09 61.5 °F /  16.4 °C 43.2 °F /  6.2 °C 29.9in /  1011.8hPa ONO 10.7mph /  17.2km/h 19.6mph /  31.5km/h 51% 0in /  0.0mm
20:14 61.5 °F /  16.4 °C 43.2 °F /  6.2 °C 29.9in /  1011.7hPa ONO 11.6mph /  18.7km/h 21.3mph /  34.3km/h 51% 0in /  0.0mm
20:19 61.5 °F /  16.4 °C 43.2 °F /  6.2 °C 29.9in /  1011.7hPa ONO 12.3mph /  19.8km/h 21mph /  33.8km/h 51% 0in /  0.0mm
20:24 61.3 °F /  16.3 °C 43.2 °F /  6.2 °C 29.9in /  1011.9hPa ONO 12.3mph /  19.8km/h 19mph /  30.6km/h 51% 0in /  0.0mm
20:29 61.3 °F /  16.3 °C 43 °F /  6.1 °C 29.9in /  1011.9hPa ONO 12.3mph /  19.8km/h 25.3mph /  40.7km/h 51% 0in /  0.0mm
20:34 61.3 °F /  16.3 °C 43 °F /  6.1 °C 29.9in /  1011.9hPa ONO 12mph /  19.3km/h 25mph /  40.2km/h 51% 0in /  0.0mm
20:39 61.5 °F /  16.4 °C 43.2 °F /  6.2 °C 29.9in /  1012.0hPa ONO 11.8mph /  19km/h 21mph /  33.8km/h 51% 0in /  0.0mm
20:44 61.3 °F /  16.3 °C 43.3 °F /  6.3 °C 29.9in /  1012.0hPa ONO 12.1mph /  19.5km/h 21mph /  33.8km/h 51.5% 0in /  0.0mm
20:49 61.3 °F /  16.3 °C 43.5 °F /  6.4 °C 29.9in /  1012.0hPa ONO 12.3mph /  19.8km/h 20mph /  32.2km/h 52% 0in /  0.0mm
20:54 61.2 °F /  16.2 °C 43.3 °F /  6.3 °C 29.9in /  1012.0hPa ONO 11.6mph /  18.7km/h 22.3mph /  35.9km/h 52% 0in /  0.0mm
20:59 61.2 °F /  16.2 °C 43.7 °F /  6.5 °C 29.9in /  1012.0hPa ONO 11.2mph /  18km/h 23mph /  37km/h 52.9% 0in /  0.0mm
21:04 61 °F /  16.1 °C 43.7 °F /  6.5 °C 29.9in /  1012.0hPa ONO 12.4mph /  19.9km/h 23mph /  37km/h 53% 0in /  0.0mm
21:09 60.8 °F /  16 °C 43.7 °F /  6.5 °C 29.9in /  1012.0hPa ONO 13mph /  20.9km/h 21mph /  33.8km/h 53% 0in /  0.0mm
21:14 60.8 °F /  16 °C 43.7 °F /  6.5 °C 29.9in /  1012.0hPa ONO 12.2mph /  19.7km/h 24.2mph /  38.9km/h 53.1% 0in /  0.0mm
21:19 60.6 °F /  15.9 °C 43.9 °F /  6.6 °C 29.9in /  1012.0hPa ONO 11.8mph /  19km/h 24mph /  38.6km/h 54% 0in /  0.0mm
21:24 60.6 °F /  15.9 °C 43.9 °F /  6.6 °C 29.9in /  1012.3hPa ONO 10.8mph /  17.4km/h 26.5mph /  42.6km/h 54% 0in /  0.0mm
21:29 60.4 °F /  15.8 °C 43.7 °F /  6.5 °C 29.9in /  1012.3hPa ONO 10.2mph /  16.4km/h 26mph /  41.8km/h 54% 0in /  0.0mm
21:34 60.4 °F /  15.8 °C 44.1 °F /  6.7 °C 29.9in /  1012.3hPa ONO 10.5mph /  16.9km/h 23mph /  37km/h 54.8% 0in /  0.0mm
21:39 60.4 °F /  15.8 °C 44.2 °F /  6.8 °C 29.9in /  1012.4hPa ONO 10.7mph /  17.2km/h 23mph /  37km/h 55% 0in /  0.0mm
21:44 60.3 °F /  15.7 °C 44.1 °F /  6.7 °C 29.9in /  1012.4hPa ONO 9.8mph /  15.7km/h 16mph /  25.7km/h 55% 0in /  0.0mm
21:49 60.3 °F /  15.7 °C 44.1 °F /  6.7 °C 29.9in /  1012.4hPa ONO 9.2mph /  14.8km/h 16.1mph /  25.9km/h 55% 0in /  0.0mm
21:54 60.3 °F /  15.7 °C 44.4 °F /  6.9 °C 29.9in /  1012.7hPa NO 8.5mph /  13.7km/h 17.3mph /  27.8km/h 56% 0in /  0.0mm
21:59 60.3 °F /  15.7 °C 44.4 °F /  6.9 °C 29.9in /  1012.7hPa ONO 8.1mph /  13km/h 21.9mph /  35.2km/h 56% 0in /  0.0mm
22:04 60.3 °F /  15.7 °C 44.4 °F /  6.9 °C 29.9in /  1012.7hPa ONO 9.8mph /  15.8km/h 22mph /  35.4km/h 56% 0in /  0.0mm
22:09 60.3 °F /  15.7 °C 44.4 °F /  6.9 °C 29.9in /  1012.7hPa ONO 10.7mph /  17.2km/h 20mph /  32.2km/h 56% 0in /  0.0mm
22:14 60.3 °F /  15.7 °C 44.4 °F /  6.9 °C 29.9in /  1012.6hPa ONO 10.1mph /  16.2km/h 19mph /  30.6km/h 56% 0in /  0.0mm
22:19 60.1 °F /  15.6 °C 44.2 °F /  6.8 °C 29.9in /  1012.6hPa ONO 9.7mph /  15.6km/h 18mph /  29km/h 56% 0in /  0.0mm
22:24 60.1 °F /  15.6 °C 44.2 °F /  6.8 °C 29.9in /  1012.7hPa Oeste 9.1mph /  14.6km/h 15.2mph /  24.5km/h 56% 0in /  0.0mm
22:29 60.1 °F /  15.6 °C 44.2 °F /  6.8 °C 29.9in /  1012.7hPa Oeste 8.7mph /  14km/h 15mph /  24.1km/h 56% 0in /  0.0mm
22:34 59.7 °F /  15.4 °C 44.1 °F /  6.7 °C 29.9in /  1012.7hPa Oeste 7.6mph /  12.2km/h 13.8mph /  22.2km/h 56% 0in /  0.0mm
22:39 59.7 °F /  15.4 °C 44.1 °F /  6.7 °C 29.9in /  1012.7hPa Oeste 6.9mph /  11.1km/h 14mph /  22.5km/h 56% 0in /  0.0mm
22:44 59.7 °F /  15.4 °C 44.1 °F /  6.7 °C 29.9in /  1012.7hPa Oeste 6.6mph /  10.6km/h 13mph /  20.9km/h 56% 0in /  0.0mm
22:49 59.7 °F /  15.4 °C 44.1 °F /  6.7 °C 29.9in /  1012.7hPa ONO 6.4mph /  10.3km/h 13mph /  20.9km/h 56% 0in /  0.0mm
22:54 59.5 °F /  15.3 °C 43.5 °F /  6.4 °C 29.9in /  1012.7hPa Oeste 5.8mph /  9.3km/h 10.4mph /  16.7km/h 55.3% 0in /  0.0mm
22:59 59.5 °F /  15.3 °C 43.3 °F /  6.3 °C 29.9in /  1012.7hPa Oeste 5.4mph /  8.7km/h 10mph /  16.1km/h 55% 0in /  0.0mm
23:04 59.5 °F /  15.3 °C 43.3 °F /  6.3 °C 29.9in /  1012.7hPa Oeste 6mph /  9.6km/h 14mph /  22.5km/h 55% 0in /  0.0mm
23:09 59.4 °F /  15.2 °C 43.2 °F /  6.2 °C 29.9in /  1012.8hPa ONO 6.2mph /  10km/h 14mph /  22.5km/h 55% 0in /  0.0mm
23:14 59.4 °F /  15.2 °C 43.2 °F /  6.2 °C 29.9in /  1012.8hPa Oeste 6.6mph /  10.7km/h 13mph /  20.9km/h 55% 0in /  0.0mm
23:19 59.2 °F /  15.1 °C 43 °F /  6.1 °C 29.9in /  1012.8hPa ONO 6.9mph /  11.1km/h 18.4mph /  29.6km/h 55% 0in /  0.0mm
23:24 59.2 °F /  15.1 °C 43 °F /  6.1 °C 29.9in /  1012.8hPa ONO 8.1mph /  13km/h 18mph /  29km/h 55% 0in /  0.0mm
23:29 59.2 °F /  15.1 °C 43 °F /  6.1 °C 29.9in /  1012.7hPa ONO 8.7mph /  14km/h 16.1mph /  25.9km/h 55% 0in /  0.0mm
23:34 59 °F /  15 °C 42.8 °F /  6 °C 29.9in /  1012.7hPa ONO 8.7mph /  14km/h 16mph /  25.7km/h 55% 0in /  0.0mm
23:39 58.8 °F /  14.9 °C 42.6 °F /  5.9 °C 29.9in /  1012.7hPa ONO 8.7mph /  14km/h 14mph /  22.5km/h 55% 0in /  0.0mm
23:44 58.6 °F /  14.8 °C 42.6 °F /  5.9 °C 29.9in /  1012.6hPa ONO 8mph /  12.9km/h 14mph /  22.5km/h 55.3% 0in /  0.0mm
23:49 58.5 °F /  14.7 °C 42.8 °F /  6 °C 29.9in /  1012.6hPa ONO 7.6mph /  12.2km/h 15.2mph /  24.5km/h 55.8% 0in /  0.0mm
23:54 58.6 °F /  14.8 °C 42.4 °F /  5.8 °C 29.9in /  1012.6hPa ONO 8.6mph /  13.9km/h 18.4mph /  29.6km/h 55% 0in /  0.0mm
23:59 58.6 °F /  14.8 °C 42.4 °F /  5.8 °C 29.9in /  1012.4hPa ONO 9.2mph /  14.8km/h 18mph /  29km/h 55% 0in /  0.0mm
Murcia-Puente Tocinos, España
Compliments of Weather Underground - 3 mb

La estación de MeteoMurcia.com, publica sus datos en los siguientes proyectos:

Weather Underground PWS IMURCIAP2 Meteoclimatic www.awekas.at

W3Counter
Web Analytics